createdAt,value
2023-03-06T00:00:07.785Z,100242.25
2023-03-06T00:00:43.836Z,100250.94
2023-03-06T00:01:07.812Z,100250.09
2023-03-06T00:01:21.074Z,100252.69
2023-03-06T00:01:33.733Z,100252.66
2023-03-06T00:01:48.898Z,100247.44
2023-03-06T00:02:01.614Z,100249.13
2023-03-06T00:02:15.366Z,100246.53
2023-03-06T00:02:28.107Z,100250.03
2023-03-06T00:02:40.780Z,100250.03
2023-03-06T00:02:53.592Z,100246.44
2023-03-06T00:03:06.604Z,100245.56
2023-03-06T00:03:19.914Z,100249.91
2023-03-06T00:03:33.845Z,100247.22
2023-03-06T00:03:46.635Z,100250.72
2023-03-06T00:03:59.289Z,100246.34
2023-03-06T00:04:12.017Z,100247.19
2023-03-06T00:04:24.628Z,100248.94
2023-03-06T00:04:38.629Z,100241.09
2023-03-06T00:04:51.281Z,100248.03
2023-03-06T00:05:05.081Z,100248.00
2023-03-06T00:05:18.225Z,100248.88
2023-03-06T00:05:31.066Z,100247.13
2023-03-06T00:05:44.000Z,100244.53
2023-03-06T00:05:57.773Z,100243.63
2023-03-06T00:06:10.609Z,100249.66
2023-03-06T00:06:23.675Z,100245.34
2023-03-06T00:06:36.286Z,100244.44
2023-03-06T00:06:50.033Z,100246.19
2023-03-06T00:07:02.650Z,100248.75
2023-03-06T00:07:15.341Z,100246.13
2023-03-06T00:07:27.924Z,100248.75
2023-03-06T00:07:40.894Z,100249.63
2023-03-06T00:07:53.495Z,100246.09
2023-03-06T00:08:07.772Z,100241.72
2023-03-06T00:08:20.375Z,100240.88
2023-03-06T00:08:32.980Z,100243.47
2023-03-06T00:08:45.895Z,100247.81
2023-03-06T00:08:58.488Z,100245.22
2023-03-06T00:09:11.090Z,100254.75
2023-03-06T00:09:23.701Z,100248.69
2023-03-06T00:09:37.291Z,100246.91
2023-03-06T00:09:49.937Z,100245.16
2023-03-06T00:10:02.534Z,100243.47
2023-03-06T00:10:17.788Z,100245.16
2023-03-06T00:10:32.014Z,100241.69
2023-03-06T00:10:45.985Z,100248.66
2023-03-06T00:10:59.507Z,100240.81
2023-03-06T00:11:14.827Z,100252.94
2023-03-06T00:11:27.434Z,100251.25
2023-03-06T00:11:40.033Z,100246.03
2023-03-06T00:11:52.614Z,100246.03
2023-03-06T00:12:05.573Z,100252.94
2023-03-06T00:12:18.167Z,100248.66
2023-03-06T00:12:31.863Z,100252.94
2023-03-06T00:12:44.722Z,100246.88
2023-03-06T00:12:59.775Z,100252.09
2023-03-06T00:13:14.226Z,100252.09
2023-03-06T00:13:30.203Z,100251.25
2023-03-06T00:13:42.874Z,100250.34
2023-03-06T00:13:57.545Z,100247.72
2023-03-06T00:14:11.144Z,100249.47
2023-03-06T00:14:23.880Z,100251.19
2023-03-06T00:14:36.494Z,100252.00
2023-03-06T00:14:49.110Z,100251.16
2023-03-06T00:15:02.375Z,100248.50
2023-03-06T00:15:16.448Z,100250.25
2023-03-06T00:15:29.554Z,100244.16
2023-03-06T00:15:43.386Z,100249.38
2023-03-06T00:15:59.355Z,100250.19
2023-03-06T00:16:12.353Z,100244.97
2023-03-06T00:16:25.429Z,100251.88
2023-03-06T00:16:38.130Z,100249.28
2023-03-06T00:16:54.409Z,100249.28
2023-03-06T00:17:08.000Z,100247.47
2023-03-06T00:17:20.618Z,100247.47
2023-03-06T00:17:33.347Z,100248.34
2023-03-06T00:17:45.938Z,100244.84
2023-03-06T00:17:58.745Z,100245.69
2023-03-06T00:18:12.776Z,100247.41
2023-03-06T00:18:25.434Z,100249.13
2023-03-06T00:18:38.009Z,100247.34
2023-03-06T00:18:50.702Z,100247.41
2023-03-06T00:19:03.323Z,100249.06
2023-03-06T00:19:16.039Z,100252.53
2023-03-06T00:19:28.646Z,100249.94
2023-03-06T00:19:42.613Z,100247.31
2023-03-06T00:19:56.532Z,100249.91
2023-03-06T00:20:10.978Z,100248.13
2023-03-06T00:20:25.263Z,100243.81
2023-03-06T00:20:40.870Z,100248.13
2023-03-06T00:20:53.509Z,100248.09
2023-03-06T00:21:07.889Z,100250.66
2023-03-06T00:21:20.521Z,100251.53
2023-03-06T00:21:34.098Z,100241.94
2023-03-06T00:21:46.789Z,100248.81
2023-03-06T00:21:59.412Z,100252.28
2023-03-06T00:22:15.013Z,100254.00
2023-03-06T00:22:27.710Z,100249.59
2023-03-06T00:22:40.768Z,100247.00
2023-03-06T00:22:54.372Z,100249.50
2023-03-06T00:23:08.087Z,100251.25
2023-03-06T00:23:20.944Z,100253.84
2023-03-06T00:23:33.845Z,100244.28
2023-03-06T00:23:46.419Z,100254.69
2023-03-06T00:23:59.002Z,100248.56
2023-03-06T00:24:11.595Z,100248.56
2023-03-06T00:24:25.176Z,100252.91
2023-03-06T00:24:37.736Z,100245.06
2023-03-06T00:24:53.677Z,100253.75
2023-03-06T00:25:07.813Z,100245.91
2023-03-06T00:25:21.985Z,100249.38
2023-03-06T00:25:36.844Z,100254.56
2023-03-06T00:25:49.488Z,100251.94
2023-03-06T00:26:03.260Z,100250.25
2023-03-06T00:26:15.872Z,100245.03
2023-03-06T00:26:28.618Z,100251.09
2023-03-06T00:26:41.867Z,100253.75
2023-03-06T00:26:54.611Z,100250.28
2023-03-06T00:27:07.208Z,100243.28
2023-03-06T00:27:20.122Z,100243.28
2023-03-06T00:27:34.241Z,100248.53
2023-03-06T00:27:47.320Z,100252.91
2023-03-06T00:28:00.117Z,100250.25
2023-03-06T00:28:14.906Z,100248.47
2023-03-06T00:28:30.969Z,100245.88
2023-03-06T00:28:43.546Z,100252.78
2023-03-06T00:28:56.172Z,100248.41
2023-03-06T00:29:10.067Z,100246.72
2023-03-06T00:29:22.649Z,100252.78
2023-03-06T00:29:35.720Z,100251.94
2023-03-06T00:29:49.737Z,100246.72
2023-03-06T00:30:02.398Z,100250.19
2023-03-06T00:30:17.210Z,100251.03
2023-03-06T00:30:29.968Z,100247.56
2023-03-06T00:30:43.840Z,100245.03
2023-03-06T00:30:56.690Z,100250.19
2023-03-06T00:31:09.618Z,100248.47
2023-03-06T00:31:22.292Z,100252.78
2023-03-06T00:31:35.994Z,100248.41
2023-03-06T00:31:48.674Z,100250.25
2023-03-06T00:32:02.642Z,100250.25
2023-03-06T00:32:15.512Z,100251.94
2023-03-06T00:32:28.770Z,100245.03
2023-03-06T00:32:41.841Z,100252.78
2023-03-06T00:32:54.679Z,100250.25
2023-03-06T00:33:07.336Z,100245.88
2023-03-06T00:33:20.934Z,100251.97
2023-03-06T00:33:33.538Z,100243.28
2023-03-06T00:33:46.254Z,100243.28
2023-03-06T00:33:58.894Z,100244.22
2023-03-06T00:34:11.467Z,100245.91
2023-03-06T00:34:24.082Z,100248.53
2023-03-06T00:34:36.708Z,100245.03
2023-03-06T00:34:51.415Z,100251.13
2023-03-06T00:35:05.933Z,100245.03
2023-03-06T00:35:18.727Z,100246.75
2023-03-06T00:35:31.855Z,100252.84
2023-03-06T00:35:44.574Z,100245.03
2023-03-06T00:35:57.272Z,100242.41
2023-03-06T00:36:10.360Z,100252.84
2023-03-06T00:36:22.958Z,100247.56
2023-03-06T00:36:35.620Z,100248.47
2023-03-06T00:36:49.268Z,100248.41
2023-03-06T00:37:01.856Z,100250.16
2023-03-06T00:37:14.455Z,100244.06
2023-03-06T00:37:27.270Z,100249.22
2023-03-06T00:37:40.742Z,100251.84
2023-03-06T00:37:53.325Z,100245.78
2023-03-06T00:38:05.988Z,100246.59
2023-03-06T00:38:18.576Z,100248.34
2023-03-06T00:38:33.534Z,100249.22
2023-03-06T00:38:47.145Z,100249.19
2023-03-06T00:38:59.706Z,100252.66
2023-03-06T00:39:12.300Z,100257.88
2023-03-06T00:39:24.909Z,100255.28
2023-03-06T00:39:37.548Z,100244.81
2023-03-06T00:39:50.696Z,100251.78
2023-03-06T00:40:06.334Z,100252.63
2023-03-06T00:40:21.028Z,100245.63
2023-03-06T00:40:33.916Z,100248.25
2023-03-06T00:40:46.523Z,100249.97
2023-03-06T00:40:59.852Z,100248.22
2023-03-06T00:41:13.664Z,100242.19
2023-03-06T00:41:27.175Z,100253.41
2023-03-06T00:41:40.849Z,100249.03
2023-03-06T00:41:53.507Z,100249.03
2023-03-06T00:42:06.534Z,100244.66
2023-03-06T00:42:19.782Z,100245.50
2023-03-06T00:42:32.870Z,100246.38
2023-03-06T00:42:46.227Z,100248.09
2023-03-06T00:42:58.852Z,100249.00
2023-03-06T00:43:12.838Z,100242.00
2023-03-06T00:43:25.561Z,100241.16
2023-03-06T00:43:38.238Z,100248.09
2023-03-06T00:43:50.810Z,100242.84
2023-03-06T00:44:03.504Z,100242.84
2023-03-06T00:44:17.105Z,100245.47
2023-03-06T00:44:29.751Z,100241.16
2023-03-06T00:44:42.831Z,100239.34
2023-03-06T00:44:55.481Z,100241.97
2023-03-06T00:45:09.072Z,100240.22
2023-03-06T00:45:21.974Z,100242.78
2023-03-06T00:45:35.675Z,100242.78
2023-03-06T00:45:48.295Z,100248.00
2023-03-06T00:46:01.234Z,100244.47
2023-03-06T00:46:13.842Z,100242.78
2023-03-06T00:46:26.673Z,100240.09
2023-03-06T00:46:39.289Z,100237.56
2023-03-06T00:46:52.856Z,100244.47
2023-03-06T00:47:05.776Z,100243.56
2023-03-06T00:47:18.505Z,100235.72
2023-03-06T00:47:31.153Z,100238.34
2023-03-06T00:47:43.926Z,100237.50
2023-03-06T00:47:56.537Z,100234.88
2023-03-06T00:48:09.210Z,100235.72
2023-03-06T00:48:22.792Z,100239.25
2023-03-06T00:48:35.470Z,100237.50
2023-03-06T00:48:48.061Z,100234.88
2023-03-06T00:49:00.754Z,100237.50
2023-03-06T00:49:13.348Z,100240.09
2023-03-06T00:49:25.946Z,100237.56
2023-03-06T00:49:38.667Z,100232.34
2023-03-06T00:49:53.652Z,100238.41
2023-03-06T00:50:07.385Z,100238.44
2023-03-06T00:50:20.289Z,100239.28
2023-03-06T00:50:32.909Z,100234.13
2023-03-06T00:50:45.494Z,100234.97
2023-03-06T00:50:58.215Z,100236.75
2023-03-06T00:51:13.783Z,100233.25
2023-03-06T00:51:26.661Z,100237.63
2023-03-06T00:51:40.248Z,100240.25
2023-03-06T00:51:52.828Z,100233.31
2023-03-06T00:52:05.955Z,100235.06
2023-03-06T00:52:18.523Z,100244.66
2023-03-06T00:52:31.121Z,100233.34
2023-03-06T00:52:43.765Z,100237.72
2023-03-06T00:52:56.393Z,100234.25
2023-03-06T00:53:11.120Z,100238.63
2023-03-06T00:53:24.148Z,100238.63
2023-03-06T00:53:37.000Z,100232.56
2023-03-06T00:53:49.618Z,100237.81
2023-03-06T00:54:02.199Z,100230.88
2023-03-06T00:54:14.869Z,100241.31
2023-03-06T00:54:28.467Z,100235.25
2023-03-06T00:54:41.818Z,100231.75
2023-03-06T00:54:54.429Z,100237.88
2023-03-06T00:55:07.985Z,100233.56
2023-03-06T00:55:20.627Z,100230.94
2023-03-06T00:55:33.577Z,100231.88
2023-03-06T00:55:46.500Z,100233.63
2023-03-06T00:55:59.302Z,100233.66
2023-03-06T00:56:12.874Z,100231.06
2023-03-06T00:56:26.137Z,100230.19
2023-03-06T00:56:38.737Z,100231.97
2023-03-06T00:56:51.470Z,100237.19
2023-03-06T00:57:04.312Z,100238.06
2023-03-06T00:57:16.966Z,100225.94
2023-03-06T00:57:30.690Z,100236.38
2023-03-06T00:57:44.455Z,100231.16
2023-03-06T00:57:57.193Z,100230.28
2023-03-06T00:58:09.789Z,100231.19
2023-03-06T00:58:22.413Z,100232.94
2023-03-06T00:58:35.085Z,100233.78
2023-03-06T00:58:47.665Z,100232.06
2023-03-06T00:59:01.231Z,100232.06
2023-03-06T00:59:13.873Z,100231.22
2023-03-06T00:59:27.666Z,100233.81
2023-03-06T00:59:40.483Z,100226.84
2023-03-06T00:59:53.249Z,100228.59
2023-03-06T01:00:08.115Z,100225.16
2023-03-06T01:00:22.013Z,100232.06
2023-03-06T01:00:34.630Z,100225.13
2023-03-06T01:00:47.282Z,100227.72
2023-03-06T01:01:00.356Z,100223.34
2023-03-06T01:01:13.227Z,100229.41
2023-03-06T01:01:25.882Z,100229.41
2023-03-06T01:01:38.469Z,100223.31
2023-03-06T01:01:52.154Z,100230.28
2023-03-06T01:02:05.466Z,100226.81
2023-03-06T01:02:18.313Z,100227.66
2023-03-06T01:02:31.036Z,100224.19
2023-03-06T01:02:43.716Z,100227.72
2023-03-06T01:02:56.379Z,100230.34
2023-03-06T01:03:09.228Z,100227.72
2023-03-06T01:03:22.888Z,100227.72
2023-03-06T01:03:35.594Z,100230.34
2023-03-06T01:03:48.166Z,100225.16
2023-03-06T01:04:00.740Z,100230.38
2023-03-06T01:04:13.414Z,100226.03
2023-03-06T01:04:26.061Z,100228.72
2023-03-06T01:04:38.694Z,100226.09
2023-03-06T01:04:53.702Z,100226.94
2023-03-06T01:05:07.613Z,100224.38
2023-03-06T01:05:20.720Z,100221.75
2023-03-06T01:05:35.391Z,100227.91
2023-03-06T01:05:48.072Z,100227.03
2023-03-06T01:06:00.684Z,100227.94
2023-03-06T01:06:13.318Z,100220.09
2023-03-06T01:06:26.975Z,100225.34
2023-03-06T01:06:39.560Z,100228.03
2023-03-06T01:06:52.196Z,100221.03
2023-03-06T01:07:04.885Z,100228.03
2023-03-06T01:07:17.514Z,100225.41
2023-03-06T01:07:33.396Z,100228.06
2023-03-06T01:07:47.071Z,100226.38
2023-03-06T01:07:59.704Z,100226.38
2023-03-06T01:08:12.333Z,100221.13
2023-03-06T01:08:24.902Z,100227.25
2023-03-06T01:08:37.492Z,100224.63
2023-03-06T01:08:50.363Z,100224.63
2023-03-06T01:09:03.801Z,100220.31
2023-03-06T01:09:17.529Z,100227.34
2023-03-06T01:09:30.096Z,100222.13
2023-03-06T01:09:42.820Z,100221.25
2023-03-06T01:09:55.488Z,100223.00
2023-03-06T01:10:10.060Z,100225.63
2023-03-06T01:10:23.004Z,100223.91
2023-03-06T01:10:38.757Z,100222.19
2023-03-06T01:10:52.405Z,100220.50
2023-03-06T01:11:05.283Z,100221.38
2023-03-06T01:11:17.931Z,100226.59
2023-03-06T01:11:30.723Z,100221.47
2023-03-06T01:11:43.400Z,100226.66
2023-03-06T01:11:56.336Z,100224.06
2023-03-06T01:12:09.903Z,100217.13
2023-03-06T01:12:23.560Z,100221.53
2023-03-06T01:12:37.564Z,100219.81
2023-03-06T01:12:50.267Z,100218.06
2023-03-06T01:13:02.939Z,100221.59
2023-03-06T01:13:15.525Z,100226.84
2023-03-06T01:13:28.286Z,100226.84
2023-03-06T01:13:40.958Z,100225.16
2023-03-06T01:13:53.671Z,100220.81
2023-03-06T01:14:06.642Z,100216.53
2023-03-06T01:14:19.529Z,100218.31
2023-03-06T01:14:33.155Z,100220.94
2023-03-06T01:14:45.804Z,100220.97
2023-03-06T01:14:58.513Z,100219.28
2023-03-06T01:15:13.504Z,100220.16
2023-03-06T01:15:26.153Z,100217.59
2023-03-06T01:15:38.800Z,100225.47
2023-03-06T01:15:51.464Z,100222.84
2023-03-06T01:16:09.933Z,100224.63
2023-03-06T01:16:22.801Z,100214.22
2023-03-06T01:16:35.480Z,100222.97
2023-03-06T01:16:48.680Z,100218.63
2023-03-06T01:17:01.326Z,100219.53
2023-03-06T01:17:14.190Z,100215.19
2023-03-06T01:17:28.075Z,100223.00
2023-03-06T01:17:40.833Z,100222.16
2023-03-06T01:17:54.262Z,100219.59
2023-03-06T01:18:07.865Z,100217.91
2023-03-06T01:18:20.572Z,100220.50
2023-03-06T01:18:33.438Z,100218.78
2023-03-06T01:18:47.410Z,100220.53
2023-03-06T01:19:00.214Z,100216.22
2023-03-06T01:19:13.115Z,100220.56
2023-03-06T01:19:25.853Z,100221.44
2023-03-06T01:19:38.523Z,100213.66
2023-03-06T01:19:52.808Z,100214.53
2023-03-06T01:20:06.898Z,100217.13
2023-03-06T01:20:19.598Z,100218.03
2023-03-06T01:20:32.292Z,100218.94
2023-03-06T01:20:45.943Z,100222.44
2023-03-06T01:20:58.694Z,100219.88
2023-03-06T01:21:11.433Z,100210.28
2023-03-06T01:21:24.642Z,100219.03
2023-03-06T01:21:37.246Z,100212.94
2023-03-06T01:21:49.858Z,100222.53
2023-03-06T01:22:02.480Z,100217.31
2023-03-06T01:22:16.078Z,100216.44
2023-03-06T01:22:28.707Z,100212.13
2023-03-06T01:22:41.363Z,100208.69
2023-03-06T01:22:55.507Z,100223.44
2023-03-06T01:23:08.183Z,100216.53
2023-03-06T01:23:20.780Z,100220.00
2023-03-06T01:23:34.993Z,100218.28
2023-03-06T01:23:47.959Z,100213.94
2023-03-06T01:24:00.575Z,100213.94
2023-03-06T01:24:13.144Z,100212.25
2023-03-06T01:24:25.977Z,100220.09
2023-03-06T01:24:39.180Z,100215.75
2023-03-06T01:24:51.797Z,100218.34
2023-03-06T01:25:04.908Z,100213.19
2023-03-06T01:25:18.790Z,100218.41
2023-03-06T01:25:31.521Z,100215.84
2023-03-06T01:25:44.343Z,100217.59
2023-03-06T01:25:57.066Z,100221.94
2023-03-06T01:26:10.524Z,100218.50
2023-03-06T01:26:24.110Z,100221.09
2023-03-06T01:26:36.836Z,100218.56
2023-03-06T01:26:49.500Z,100219.41
2023-03-06T01:27:02.107Z,100222.91
2023-03-06T01:27:14.806Z,100215.97
2023-03-06T01:27:27.791Z,100215.13
2023-03-06T01:27:40.614Z,100215.97
2023-03-06T01:27:54.324Z,100219.50
2023-03-06T01:28:06.926Z,100217.78
2023-03-06T01:28:19.563Z,100216.94
2023-03-06T01:28:34.088Z,100217.78
2023-03-06T01:28:46.693Z,100220.41
2023-03-06T01:29:00.306Z,100220.47
2023-03-06T01:29:12.911Z,100221.31
2023-03-06T01:29:26.472Z,100221.34
2023-03-06T01:29:39.098Z,100218.78
2023-03-06T01:29:51.721Z,100212.78
2023-03-06T01:30:05.579Z,100215.31
2023-03-06T01:30:18.334Z,100211.84
2023-03-06T01:30:30.923Z,100218.84
2023-03-06T01:30:43.592Z,100215.38
2023-03-06T01:30:57.603Z,100221.47
2023-03-06T01:31:11.349Z,100216.28
2023-03-06T01:31:24.891Z,100213.69
2023-03-06T01:31:37.716Z,100218.03
2023-03-06T01:31:50.483Z,100213.72
2023-03-06T01:32:03.238Z,100215.47
2023-03-06T01:32:15.939Z,100217.22
2023-03-06T01:32:30.742Z,100222.44
2023-03-06T01:32:43.691Z,100224.19
2023-03-06T01:32:56.336Z,100219.84
2023-03-06T01:33:08.917Z,100217.25
2023-03-06T01:33:21.825Z,100220.78
2023-03-06T01:33:36.045Z,100220.75
2023-03-06T01:33:48.659Z,100216.47
2023-03-06T01:34:01.565Z,100215.66
2023-03-06T01:34:14.239Z,100214.75
2023-03-06T01:34:26.867Z,100219.13
2023-03-06T01:34:39.501Z,100224.34
2023-03-06T01:34:54.034Z,100219.16
2023-03-06T01:35:08.445Z,100226.97
2023-03-06T01:35:21.039Z,100215.69
2023-03-06T01:35:33.702Z,100214.88
2023-03-06T01:35:46.587Z,100223.53
2023-03-06T01:35:59.230Z,100221.00
2023-03-06T01:36:13.752Z,100222.75
2023-03-06T01:36:26.390Z,100218.41
2023-03-06T01:36:39.042Z,100213.19
2023-03-06T01:36:51.685Z,100226.25
2023-03-06T01:37:04.315Z,100217.56
2023-03-06T01:37:17.176Z,100218.44
2023-03-06T01:37:29.955Z,100220.19
2023-03-06T01:37:43.619Z,100218.53
2023-03-06T01:37:56.252Z,100213.31
2023-03-06T01:38:09.158Z,100215.00
2023-03-06T01:38:22.113Z,100215.94
2023-03-06T01:38:35.782Z,100217.69
2023-03-06T01:38:48.404Z,100215.94
2023-03-06T01:39:00.982Z,100215.94
2023-03-06T01:39:14.585Z,100215.94
2023-03-06T01:39:28.808Z,100219.41
2023-03-06T01:39:41.445Z,100219.41
2023-03-06T01:39:54.038Z,100211.59
2023-03-06T01:40:08.452Z,100214.19
2023-03-06T01:40:21.382Z,100216.81
2023-03-06T01:40:36.569Z,100219.47
2023-03-06T01:40:49.141Z,100220.31
2023-03-06T01:41:03.588Z,100220.31
2023-03-06T01:41:16.314Z,100221.16
2023-03-06T01:41:28.945Z,100219.47
2023-03-06T01:41:41.621Z,100218.56
2023-03-06T01:41:54.362Z,100211.66
2023-03-06T01:42:07.380Z,100222.06
2023-03-06T01:42:21.220Z,100216.88
2023-03-06T01:42:33.849Z,100216.88
2023-03-06T01:42:49.314Z,100213.44
2023-03-06T01:43:10.554Z,100211.75
2023-03-06T01:43:27.602Z,100218.66
2023-03-06T01:43:44.177Z,100215.25
2023-03-06T01:43:56.790Z,100213.53
2023-03-06T01:44:10.996Z,100215.28
2023-03-06T01:44:23.606Z,100213.59
2023-03-06T01:44:36.227Z,100211.06
2023-03-06T01:44:59.673Z,100219.72
2023-03-06T01:45:50.127Z,100219.75
2023-03-06T01:46:28.388Z,100219.84
2023-03-06T01:46:43.301Z,100210.34
2023-03-06T01:46:55.934Z,100210.34
2023-03-06T01:47:08.530Z,100210.34
2023-03-06T01:47:21.112Z,100217.28
2023-03-06T01:47:33.757Z,100216.44
2023-03-06T01:47:46.394Z,100210.38
2023-03-06T01:47:59.010Z,100213.00
2023-03-06T01:48:11.616Z,100212.13
2023-03-06T01:48:24.937Z,100218.19
2023-03-06T01:48:38.642Z,100216.50
2023-03-06T01:48:55.781Z,100208.72
2023-03-06T01:49:14.357Z,100210.47
2023-03-06T01:49:31.828Z,100217.38
2023-03-06T01:49:44.560Z,100209.66
2023-03-06T01:50:01.499Z,100208.75
2023-03-06T01:50:15.146Z,100212.25
2023-03-06T01:50:28.681Z,100213.13
2023-03-06T01:50:41.623Z,100212.28
2023-03-06T01:50:54.666Z,100218.34
2023-03-06T01:51:07.333Z,100212.31
2023-03-06T01:51:20.115Z,100205.41
2023-03-06T01:51:36.143Z,100209.69
2023-03-06T01:51:52.437Z,100211.47
2023-03-06T01:52:09.352Z,100219.31
2023-03-06T01:52:26.047Z,100220.22
2023-03-06T01:52:43.421Z,100215.88
2023-03-06T01:52:59.872Z,100215.03
2023-03-06T01:53:13.614Z,100211.56
2023-03-06T01:53:26.297Z,100220.22
2023-03-06T01:53:40.321Z,100210.72
2023-03-06T01:53:53.967Z,100209.88
2023-03-06T01:54:12.908Z,100207.25
2023-03-06T01:54:28.540Z,100215.94
2023-03-06T01:54:44.614Z,100213.34
2023-03-06T01:55:02.231Z,100209.88
2023-03-06T01:55:18.160Z,100209.03
2023-03-06T01:55:35.111Z,100207.31
2023-03-06T01:55:48.784Z,100209.06
2023-03-06T01:56:01.431Z,100211.69
2023-03-06T01:56:15.418Z,100207.41
2023-03-06T01:56:29.512Z,100203.06
2023-03-06T01:56:45.427Z,100211.72
2023-03-06T01:57:04.564Z,100209.16
2023-03-06T01:57:20.773Z,100208.31
2023-03-06T01:57:35.401Z,100204.91
2023-03-06T01:57:52.522Z,100207.53
2023-03-06T01:58:08.875Z,100202.31
2023-03-06T01:58:22.573Z,100209.22
2023-03-06T01:58:36.631Z,100207.53
2023-03-06T01:58:51.316Z,100206.69
2023-03-06T01:59:04.679Z,100207.53
2023-03-06T01:59:18.582Z,100205.78
2023-03-06T01:59:36.182Z,100212.78
2023-03-06T01:59:53.163Z,100211.09
2023-03-06T02:00:10.276Z,100209.38
2023-03-06T02:00:25.440Z,100209.38
2023-03-06T02:00:38.245Z,100210.25
2023-03-06T02:00:50.909Z,100206.81
2023-03-06T02:01:04.590Z,100199.00
2023-03-06T02:01:19.252Z,100203.38
2023-03-06T02:01:33.355Z,100210.34
2023-03-06T02:01:47.272Z,100208.59
2023-03-06T02:02:01.920Z,100215.53
2023-03-06T02:02:15.903Z,100216.41
2023-03-06T02:02:28.941Z,100203.41
2023-03-06T02:02:45.423Z,100204.31
2023-03-06T02:03:04.149Z,100210.38
2023-03-06T02:03:21.628Z,100206.91
2023-03-06T02:03:34.261Z,100207.78
2023-03-06T02:03:49.941Z,100206.09
2023-03-06T02:04:02.707Z,100204.31
2023-03-06T02:04:17.371Z,100199.13
2023-03-06T02:04:30.693Z,100204.38
2023-03-06T02:04:44.211Z,100206.09
2023-03-06T02:04:59.786Z,100202.69
2023-03-06T02:05:12.735Z,100209.59
2023-03-06T02:05:25.487Z,100202.69
2023-03-06T02:05:39.861Z,100199.25
2023-03-06T02:05:53.029Z,100201.84
2023-03-06T02:06:07.150Z,100201.84
2023-03-06T02:06:21.903Z,100203.56
2023-03-06T02:06:36.798Z,100199.25
2023-03-06T02:06:49.894Z,100205.34
2023-03-06T02:07:04.876Z,100201.88
2023-03-06T02:07:20.881Z,100199.31
2023-03-06T02:07:34.497Z,100204.50
2023-03-06T02:07:48.156Z,100195.84
2023-03-06T02:08:02.414Z,100199.31
2023-03-06T02:08:18.365Z,100194.97
2023-03-06T02:08:31.816Z,100200.22
2023-03-06T02:08:44.448Z,100197.59
2023-03-06T02:08:58.350Z,100198.50
2023-03-06T02:09:12.833Z,100195.91
2023-03-06T02:09:29.957Z,100199.38
2023-03-06T02:09:42.591Z,100198.50
2023-03-06T02:09:55.310Z,100195.91
2023-03-06T02:10:09.752Z,100191.56
2023-03-06T02:10:22.625Z,100198.53
2023-03-06T02:10:36.345Z,100197.69
2023-03-06T02:10:58.510Z,100196.88
2023-03-06T02:11:13.684Z,100194.28
2023-03-06T02:11:26.377Z,100199.50
2023-03-06T02:11:39.074Z,100190.84
2023-03-06T02:11:51.933Z,100194.28
2023-03-06T02:12:10.423Z,100199.50
2023-03-06T02:12:23.934Z,100196.06
2023-03-06T02:12:37.662Z,100192.59
2023-03-06T02:12:51.594Z,100195.19
2023-03-06T02:13:04.452Z,100193.47
2023-03-06T02:13:17.084Z,100190.88
2023-03-06T02:13:30.195Z,100188.25
2023-03-06T02:13:44.308Z,100193.47
2023-03-06T02:13:58.095Z,100189.16
2023-03-06T02:14:13.296Z,100196.06
2023-03-06T02:14:26.244Z,100190.03
2023-03-06T02:14:40.054Z,100190.88
2023-03-06T02:14:53.142Z,100190.88
2023-03-06T02:15:06.787Z,100189.16
2023-03-06T02:15:22.349Z,100200.44
2023-03-06T02:15:35.145Z,100189.16
2023-03-06T02:15:48.792Z,100190.03
2023-03-06T02:16:02.122Z,100192.66
2023-03-06T02:16:16.828Z,100192.66
2023-03-06T02:16:31.706Z,100189.22
2023-03-06T02:16:44.898Z,100191.81
2023-03-06T02:16:57.930Z,100184.00
2023-03-06T02:17:15.358Z,100186.66
2023-03-06T02:17:28.143Z,100191.88
2023-03-06T02:17:42.995Z,100191.91
2023-03-06T02:17:56.464Z,100191.91
2023-03-06T02:18:09.057Z,100190.19
2023-03-06T02:18:21.757Z,100192.81
2023-03-06T02:18:35.750Z,100193.66
2023-03-06T02:18:49.619Z,100190.22
2023-03-06T02:19:06.319Z,100195.44
2023-03-06T02:19:30.432Z,100194.56
2023-03-06T02:19:52.734Z,100187.66
2023-03-06T02:20:12.529Z,100190.25
2023-03-06T02:20:32.215Z,100190.25
2023-03-06T02:20:49.882Z,100196.34
2023-03-06T02:21:06.163Z,100186.81
2023-03-06T02:21:23.309Z,100192.88
2023-03-06T02:21:37.851Z,100197.22
2023-03-06T02:21:50.797Z,100191.16
2023-03-06T02:22:03.890Z,100188.56
2023-03-06T02:22:17.800Z,100198.06
2023-03-06T02:22:37.868Z,100189.38
2023-03-06T02:22:57.621Z,100189.41
2023-03-06T02:23:14.838Z,100188.56
2023-03-06T02:23:33.760Z,100192.88
2023-03-06T02:24:01.086Z,100194.63
2023-03-06T02:24:23.808Z,100186.81
2023-03-06T02:24:41.431Z,100189.41
2023-03-06T02:25:01.590Z,100197.22
2023-03-06T02:25:26.509Z,100195.47
2023-03-06T02:25:42.042Z,100188.56
2023-03-06T02:25:55.751Z,100195.53
2023-03-06T02:26:10.191Z,100196.41
2023-03-06T02:26:23.690Z,100190.34
2023-03-06T02:26:38.132Z,100189.50
2023-03-06T02:26:52.916Z,100195.56
2023-03-06T02:27:07.478Z,100190.34
2023-03-06T02:27:21.610Z,100190.41
2023-03-06T02:27:34.667Z,100194.75
2023-03-06T02:27:48.085Z,100194.75
2023-03-06T02:28:01.180Z,100194.75
2023-03-06T02:28:15.838Z,100193.03
2023-03-06T02:28:28.482Z,100191.31
2023-03-06T02:28:42.075Z,100189.59
2023-03-06T02:28:54.894Z,100188.69
2023-03-06T02:29:08.420Z,100188.69
2023-03-06T02:29:24.179Z,100191.31
2023-03-06T02:29:36.815Z,100187.00
2023-03-06T02:29:49.713Z,100184.41
2023-03-06T02:30:06.653Z,100189.59
2023-03-06T02:30:20.556Z,100188.75
2023-03-06T02:30:33.943Z,100192.22
2023-03-06T02:30:49.309Z,100194.81
2023-03-06T02:31:02.207Z,100194.81
2023-03-06T02:31:21.621Z,100197.41
2023-03-06T02:31:34.393Z,100188.75
2023-03-06T02:31:48.209Z,100192.22
2023-03-06T02:32:00.970Z,100186.19
2023-03-06T02:32:13.580Z,100189.69
2023-03-06T02:32:26.299Z,100189.69
2023-03-06T02:32:38.968Z,100193.16
2023-03-06T02:32:51.589Z,100191.47
2023-03-06T02:33:04.728Z,100189.69
2023-03-06T02:33:21.002Z,100187.13
2023-03-06T02:33:33.701Z,100190.56
2023-03-06T02:33:46.558Z,100194.94
2023-03-06T02:34:05.073Z,100192.31
2023-03-06T02:34:53.345Z,100187.16
2023-03-06T02:35:08.009Z,100192.34
2023-03-06T02:35:22.209Z,100193.22
2023-03-06T02:35:36.279Z,100192.34
2023-03-06T02:35:52.397Z,100191.50
2023-03-06T02:36:06.597Z,100188.03
2023-03-06T02:36:19.213Z,100195.84
2023-03-06T02:36:33.712Z,100197.56
2023-03-06T02:36:49.373Z,100188.91
2023-03-06T02:37:08.821Z,100191.50
2023-03-06T02:37:22.519Z,100188.91
2023-03-06T02:37:36.255Z,100186.38
2023-03-06T02:37:49.413Z,100183.78
2023-03-06T02:38:08.258Z,100189.84
2023-03-06T02:38:25.980Z,100183.78
2023-03-06T02:38:44.625Z,100183.81
2023-03-06T02:38:58.759Z,100181.22